Parish, New York
Current Conditions -  °F | °C
As of 12:11 AM on Tuesday 23 Dec 2014 (Local Time) from KFZY Reporting Station
Light Rain Light Rain  
Wind Chill: -1°   Ceiling: 500
Heat Index:   Visibility: 4mi
Dew Point:   Wind: 6mph
Humidity: 89%   Direction: 130°SE
Pressure: 30.11"   Gusts: NA
Location:  43.41°N, 76.13°W
Report Text: KFZY 230511Z AUTO 13005KT 4SM -RA BR BKN005 BKN039 OVC060 02/00 A3011 RMK AO2 RAB0455 P0000 T00170000
Loading
Personal Weather Stations






























Interactive Weather Map New forecast layout! Learn more

10-Day Weather Forecast

Advertisements
Track Severe Weather on mobile